createdAt,value
2019-04-05T00:00:01.826Z,99613.23
2019-04-05T00:02:30.909Z,99610.92
2019-04-05T00:04:59.872Z,99607.78
2019-04-05T00:07:33.575Z,99612.50
2019-04-05T00:10:03.588Z,99621.84
2019-04-05T00:12:37.233Z,99616.92
2019-04-05T00:15:15.256Z,99617.39
2019-04-05T00:17:38.294Z,99618.05
2019-04-05T00:20:12.078Z,99613.41
2019-04-05T00:22:40.840Z,99618.41
2019-04-05T00:25:10.129Z,99616.80
2019-04-05T00:27:42.285Z,99621.73
2019-04-05T00:30:16.213Z,99626.45
2019-04-05T00:32:46.951Z,99624.29
2019-04-05T00:35:16.456Z,99623.38
2019-04-05T00:37:48.140Z,99616.55
2019-04-05T00:40:17.505Z,99629.98
2019-04-05T00:42:48.000Z,99632.77
2019-04-05T00:45:27.592Z,99627.77
2019-04-05T00:47:47.235Z,99630.50
2019-04-05T00:50:17.194Z,99636.05
2019-04-05T00:52:48.366Z,99637.03
2019-04-05T00:55:17.341Z,99628.63
2019-04-05T00:57:46.082Z,99635.39
2019-04-05T01:00:17.285Z,99641.70
2019-04-05T01:02:46.536Z,99646.05
2019-04-05T01:05:18.416Z,99643.27
2019-04-05T01:07:50.872Z,99641.30
2019-04-05T01:10:21.810Z,99653.02
2019-04-05T01:12:53.759Z,99656.02
2019-04-05T01:15:26.064Z,99658.14
2019-04-05T01:17:55.211Z,99665.48
2019-04-05T01:20:27.638Z,99671.80
2019-04-05T01:22:59.942Z,99681.94
2019-04-05T01:25:31.845Z,99687.20
2019-04-05T01:28:00.429Z,99687.13
2019-04-05T01:30:32.463Z,99689.11
2019-04-05T01:33:02.704Z,99693.77
2019-04-05T01:35:32.934Z,99697.00
2019-04-05T01:38:01.844Z,99693.75
2019-04-05T01:40:33.782Z,99698.24
2019-04-05T01:43:05.862Z,99708.42
2019-04-05T01:45:35.370Z,99707.30
2019-04-05T01:48:07.624Z,99704.20
2019-04-05T01:50:40.752Z,99709.02
2019-04-05T01:53:10.028Z,99694.02
2019-04-05T01:55:46.101Z,99694.02
2019-04-05T01:58:16.235Z,99704.20
2019-04-05T02:00:49.940Z,99700.47
2019-04-05T02:03:19.915Z,99703.87
2019-04-05T02:05:50.000Z,99702.63
2019-04-05T02:08:22.307Z,99706.23
2019-04-05T02:10:58.388Z,99711.63
2019-04-05T02:13:30.348Z,99706.57
2019-04-05T02:16:06.041Z,99707.17
2019-04-05T02:18:30.298Z,99699.92
2019-04-05T02:20:59.452Z,99702.05
2019-04-05T02:23:30.564Z,99695.47
2019-04-05T02:26:04.935Z,99695.52
2019-04-05T02:28:37.095Z,99697.03
2019-04-05T02:31:07.530Z,99700.61
2019-04-05T02:33:38.550Z,99692.98
2019-04-05T02:36:09.463Z,99702.77
2019-04-05T02:38:39.618Z,99702.55
2019-04-05T02:41:10.560Z,99700.47
2019-04-05T02:43:39.290Z,99692.03
2019-04-05T02:46:22.662Z,99686.98
2019-04-05T02:48:45.294Z,99688.84
2019-04-05T02:51:15.874Z,99685.08
2019-04-05T02:53:47.655Z,99680.16
2019-04-05T02:56:18.666Z,99687.97
2019-04-05T02:58:47.865Z,99686.66
2019-04-05T03:01:22.843Z,99684.83
2019-04-05T03:03:54.991Z,99688.52
2019-04-05T03:06:25.698Z,99697.84
2019-04-05T03:08:57.046Z,99693.97
2019-04-05T03:11:30.514Z,99690.20
2019-04-05T03:14:03.669Z,99686.14
2019-04-05T03:16:40.961Z,99688.70
2019-04-05T03:19:11.254Z,99694.03
2019-04-05T03:21:44.179Z,99697.11
2019-04-05T03:24:18.194Z,99690.86
2019-04-05T03:26:55.544Z,99681.26
2019-04-05T03:29:24.440Z,99679.24
2019-04-05T03:31:58.052Z,99678.63
2019-04-05T03:34:27.402Z,99679.70
2019-04-05T03:37:01.283Z,99677.28
2019-04-05T03:39:33.321Z,99686.22
2019-04-05T03:42:02.118Z,99686.92
2019-04-05T03:44:38.359Z,99692.03
2019-04-05T03:47:10.343Z,99699.66
2019-04-05T03:49:39.230Z,99699.16
2019-04-05T03:52:10.173Z,99699.34
2019-04-05T03:54:40.301Z,99701.14
2019-04-05T03:57:08.895Z,99708.55
2019-04-05T03:59:42.590Z,99707.30
2019-04-05T04:02:10.782Z,99703.30
2019-04-05T04:04:39.441Z,99703.83
2019-04-05T04:07:10.284Z,99710.70
2019-04-05T04:09:42.024Z,99708.62
2019-04-05T04:12:10.617Z,99716.77
2019-04-05T04:14:39.185Z,99715.05
2019-04-05T04:17:12.658Z,99718.66
2019-04-05T04:19:40.651Z,99724.33
2019-04-05T04:22:18.574Z,99722.47
2019-04-05T04:24:50.733Z,99722.03
2019-04-05T04:27:21.799Z,99724.19
2019-04-05T04:29:55.399Z,99724.52
2019-04-05T04:32:26.833Z,99725.06
2019-04-05T04:35:00.208Z,99725.09
2019-04-05T04:37:29.300Z,99722.03
2019-04-05T04:39:59.920Z,99726.23
2019-04-05T04:42:30.208Z,99720.65
2019-04-05T04:45:11.399Z,99725.64
2019-04-05T04:47:32.603Z,99717.89
2019-04-05T04:50:07.011Z,99724.80
2019-04-05T04:52:35.896Z,99732.76
2019-04-05T04:55:06.878Z,99734.78
2019-04-05T04:57:39.115Z,99740.58
2019-04-05T05:00:11.768Z,99748.40
2019-04-05T05:02:40.907Z,99753.05
2019-04-05T05:05:10.185Z,99755.41
2019-04-05T05:07:40.501Z,99750.05
2019-04-05T05:10:13.944Z,99767.14
2019-04-05T05:12:46.092Z,99765.15
2019-04-05T05:15:16.325Z,99769.42
2019-04-05T05:17:57.892Z,99758.91
2019-04-05T05:20:18.338Z,99769.63
2019-04-05T05:22:49.344Z,99777.19
2019-04-05T05:25:18.292Z,99771.35
2019-04-05T05:27:51.281Z,99769.56
2019-04-05T05:30:22.469Z,99770.41
2019-04-05T05:32:51.760Z,99769.09
2019-04-05T05:35:22.117Z,99763.56
2019-04-05T05:37:53.282Z,99750.48
2019-04-05T05:40:34.689Z,99757.78
2019-04-05T05:42:57.952Z,99754.26
2019-04-05T05:45:26.544Z,99760.36
2019-04-05T05:47:55.128Z,99759.52
2019-04-05T05:50:43.444Z,99766.09
2019-04-05T05:53:12.574Z,99767.34
2019-04-05T05:55:44.838Z,99764.91
2019-04-05T05:58:13.743Z,99766.02
2019-04-05T06:00:44.640Z,99763.73
2019-04-05T06:03:18.018Z,99767.53
2019-04-05T06:06:03.575Z,99773.46
2019-04-05T06:08:22.565Z,99776.80
2019-04-05T06:10:52.494Z,99776.61
2019-04-05T06:13:26.014Z,99771.80
2019-04-05T06:15:56.653Z,99780.56
2019-04-05T06:18:30.702Z,99775.94
2019-04-05T06:20:59.874Z,99778.13
2019-04-05T06:23:34.072Z,99781.53
2019-04-05T06:26:01.509Z,99784.30
2019-04-05T06:28:32.520Z,99792.38
2019-04-05T06:31:04.466Z,99798.48
2019-04-05T06:33:36.619Z,99802.50
2019-04-05T06:36:07.388Z,99802.37
2019-04-05T06:38:36.509Z,99791.27
2019-04-05T06:41:06.539Z,99796.53
2019-04-05T06:43:35.280Z,99803.45
2019-04-05T06:46:04.017Z,99807.83
2019-04-05T06:48:33.133Z,99812.18
2019-04-05T06:51:03.486Z,99808.03
2019-04-05T06:53:32.242Z,99808.70
2019-04-05T06:56:05.955Z,99812.25
2019-04-05T06:58:33.786Z,99809.08
2019-04-05T07:01:02.304Z,99814.27
2019-04-05T07:03:32.950Z,99806.72
2019-04-05T07:06:05.183Z,99803.58
2019-04-05T07:08:35.860Z,99804.34
2019-04-05T07:11:04.440Z,99801.28
2019-04-05T07:13:36.420Z,99812.64
2019-04-05T07:16:05.263Z,99812.64
2019-04-05T07:18:36.228Z,99815.41
2019-04-05T07:21:08.046Z,99811.86
2019-04-05T07:23:41.028Z,99809.23
2019-04-05T07:26:14.731Z,99807.27
2019-04-05T07:28:45.042Z,99812.59
2019-04-05T07:31:16.029Z,99815.48
2019-04-05T07:33:46.797Z,99809.17
2019-04-05T07:36:20.192Z,99821.13
2019-04-05T07:38:51.281Z,99814.62
2019-04-05T07:41:19.852Z,99819.09
2019-04-05T07:43:48.812Z,99808.77
2019-04-05T07:46:17.955Z,99806.00
2019-04-05T07:48:48.329Z,99801.07
2019-04-05T07:51:16.886Z,99802.36
2019-04-05T07:53:51.970Z,99804.70
2019-04-05T07:56:22.007Z,99809.63
2019-04-05T07:58:53.954Z,99769.38
2019-04-05T08:01:22.905Z,99813.58
2019-04-05T08:03:53.163Z,99810.69
2019-04-05T08:06:22.130Z,99807.00
2019-04-05T08:09:02.442Z,99807.77
2019-04-05T08:11:33.285Z,99806.78
2019-04-05T08:14:03.521Z,99813.09
2019-04-05T08:16:40.624Z,99815.91
2019-04-05T08:19:09.850Z,99815.65
2019-04-05T08:21:40.446Z,99820.07
2019-04-05T08:24:10.608Z,99819.88
2019-04-05T08:26:40.847Z,99819.59
2019-04-05T08:29:09.590Z,99825.92
2019-04-05T08:31:42.166Z,99828.56
2019-04-05T08:34:13.128Z,99829.25
2019-04-05T08:36:42.107Z,99834.20
2019-04-05T08:39:12.164Z,99834.27
2019-04-05T08:41:43.282Z,99829.84
2019-04-05T08:44:11.867Z,99830.50
2019-04-05T08:46:43.999Z,99830.50
2019-04-05T08:49:12.618Z,99831.63
2019-04-05T08:51:41.568Z,99833.50
2019-04-05T08:54:10.526Z,99835.33
2019-04-05T08:56:41.703Z,99831.63
2019-04-05T08:59:16.696Z,99828.16
2019-04-05T09:01:46.670Z,99828.16
2019-04-05T09:04:17.581Z,99842.50
2019-04-05T09:06:50.041Z,99840.59
2019-04-05T09:09:22.149Z,99839.94
2019-04-05T09:11:54.231Z,99833.20
2019-04-05T09:14:23.109Z,99831.65
2019-04-05T09:16:53.036Z,99830.16
2019-04-05T09:19:24.173Z,99838.05
2019-04-05T09:21:57.560Z,99838.14
2019-04-05T09:24:26.131Z,99833.05
2019-04-05T09:26:56.812Z,99832.82
2019-04-05T09:29:28.794Z,99837.67
2019-04-05T09:31:58.130Z,99833.81
2019-04-05T09:34:28.305Z,99833.81
2019-04-05T09:36:58.936Z,99841.16
2019-04-05T09:39:29.558Z,99832.02
2019-04-05T09:42:01.265Z,99838.41
2019-04-05T09:44:30.100Z,99836.73
2019-04-05T09:47:01.035Z,99838.84
2019-04-05T09:49:36.586Z,99837.09
2019-04-05T09:52:03.587Z,99846.45
2019-04-05T09:54:33.008Z,99840.39
2019-04-05T09:57:03.767Z,99841.55
2019-04-05T09:59:36.235Z,99834.78
2019-04-05T10:02:08.207Z,99834.37
2019-04-05T10:04:38.002Z,99839.52
2019-04-05T10:07:08.822Z,99836.91
2019-04-05T10:09:50.307Z,99838.07
2019-04-05T10:12:18.209Z,99841.44
2019-04-05T10:14:47.556Z,99842.63
2019-04-05T10:17:19.156Z,99846.32
2019-04-05T10:19:50.549Z,99841.55
2019-04-05T10:22:20.737Z,99843.27
2019-04-05T10:24:51.401Z,99841.55
2019-04-05T10:27:22.972Z,99845.83
2019-04-05T10:29:55.761Z,99842.08
2019-04-05T10:32:25.981Z,99843.74
2019-04-05T10:34:55.139Z,99841.58
2019-04-05T10:37:29.306Z,99845.67
2019-04-05T10:40:01.327Z,99851.44
2019-04-05T10:42:37.507Z,99851.86
2019-04-05T10:45:08.434Z,99853.18
2019-04-05T10:47:37.196Z,99852.22
2019-04-05T10:50:10.832Z,99861.36
2019-04-05T10:52:41.186Z,99865.23
2019-04-05T10:55:09.691Z,99870.31
2019-04-05T10:57:45.220Z,99876.35
2019-04-05T11:00:18.185Z,99876.83
2019-04-05T11:02:47.123Z,99869.49
2019-04-05T11:05:23.785Z,99870.41
2019-04-05T11:07:52.698Z,99863.57
2019-04-05T11:10:25.184Z,99872.59
2019-04-05T11:12:54.146Z,99872.59
2019-04-05T11:15:24.655Z,99876.88
2019-04-05T11:17:56.745Z,99876.88
2019-04-05T11:20:29.017Z,99860.72
2019-04-05T11:23:01.030Z,99862.56
2019-04-05T11:25:34.130Z,99857.98
2019-04-05T11:28:04.996Z,99865.39
2019-04-05T11:30:41.189Z,99863.97
2019-04-05T11:33:10.094Z,99864.91
2019-04-05T11:35:43.478Z,99864.47
2019-04-05T11:38:14.402Z,99861.02
2019-04-05T11:40:43.321Z,99863.89
2019-04-05T11:43:17.220Z,99860.27
2019-04-05T11:45:48.637Z,99867.36
2019-04-05T11:48:18.097Z,99871.91
2019-04-05T11:50:46.696Z,99877.34
2019-04-05T11:53:21.781Z,99879.72
2019-04-05T11:55:51.710Z,99882.80
2019-04-05T11:58:20.436Z,99883.22
2019-04-05T12:01:08.864Z,99884.36
2019-04-05T12:03:38.573Z,99882.84
2019-04-05T12:06:12.424Z,99890.55
2019-04-05T12:08:43.311Z,99882.45
2019-04-05T12:11:12.626Z,99879.48
2019-04-05T12:13:42.925Z,99873.94
2019-04-05T12:16:14.907Z,99877.24
2019-04-05T12:18:43.800Z,99877.75
2019-04-05T12:21:15.669Z,99879.67
2019-04-05T12:23:50.671Z,99876.01
2019-04-05T12:26:23.058Z,99880.72
2019-04-05T12:28:54.811Z,99886.80
2019-04-05T12:31:25.923Z,99879.81
2019-04-05T12:33:54.471Z,99883.22
2019-04-05T12:36:23.852Z,99880.90
2019-04-05T12:38:54.508Z,99874.47
2019-04-05T12:41:23.626Z,99873.88
2019-04-05T12:43:54.714Z,99872.63
2019-04-05T12:46:26.456Z,99872.63
2019-04-05T12:48:55.369Z,99861.16
2019-04-05T12:51:24.451Z,99855.48
2019-04-05T12:53:56.774Z,99862.58
2019-04-05T12:56:33.646Z,99859.02
2019-04-05T12:59:06.220Z,99864.40
2019-04-05T13:01:36.201Z,99864.40
2019-04-05T13:04:06.516Z,99859.69
2019-04-05T13:06:38.273Z,99853.77
2019-04-05T13:09:10.813Z,99852.88
2019-04-05T13:11:41.175Z,99854.60
2019-04-05T13:14:11.126Z,99863.67
2019-04-05T13:16:44.716Z,99860.80
2019-04-05T13:19:15.145Z,99854.45
2019-04-05T13:21:43.714Z,99850.45
2019-04-05T13:24:15.533Z,99849.77
2019-04-05T13:26:49.306Z,99846.45
2019-04-05T13:29:21.678Z,99843.05
2019-04-05T13:31:50.423Z,99843.05
2019-04-05T13:34:25.632Z,99840.70
2019-04-05T13:36:57.030Z,99846.38
2019-04-05T13:39:27.519Z,99843.05
2019-04-05T13:41:59.465Z,99841.50
2019-04-05T13:44:34.253Z,99839.38
2019-04-05T13:47:03.220Z,99837.45
2019-04-05T13:49:35.416Z,99839.30
2019-04-05T13:52:06.939Z,99823.31
2019-04-05T13:54:35.551Z,99832.15
2019-04-05T13:57:11.437Z,99831.31
2019-04-05T13:59:44.435Z,99823.59
2019-04-05T14:02:21.155Z,99818.32
2019-04-05T14:04:49.654Z,99818.27
2019-04-05T14:07:18.262Z,99816.50
2019-04-05T14:09:46.840Z,99816.50
2019-04-05T14:12:16.259Z,99818.47
2019-04-05T14:14:51.295Z,99817.87
2019-04-05T14:17:20.526Z,99814.28
2019-04-05T14:19:49.569Z,99814.20
2019-04-05T14:22:22.962Z,99814.20
2019-04-05T14:24:56.457Z,99816.86
2019-04-05T14:27:23.668Z,99818.94
2019-04-05T14:29:52.372Z,99824.50
2019-04-05T14:32:26.965Z,99824.67
2019-04-05T14:34:57.477Z,99822.11
2019-04-05T14:37:26.280Z,99820.63
2019-04-05T14:39:54.818Z,99820.03
2019-04-05T14:42:29.546Z,99815.28
2019-04-05T14:44:59.457Z,99813.80
2019-04-05T14:47:28.930Z,99820.88
2019-04-05T14:50:00.915Z,99819.00
2019-04-05T14:52:31.057Z,99815.12
2019-04-05T14:55:01.950Z,99813.32
2019-04-05T14:57:30.332Z,99810.88
2019-04-05T15:00:02.377Z,99806.00
2019-04-05T15:02:31.833Z,99815.63
2019-04-05T15:05:04.801Z,99816.34
2019-04-05T15:07:33.411Z,99808.66
2019-04-05T15:10:07.901Z,99811.75
2019-04-05T15:12:45.648Z,99811.75
2019-04-05T15:15:14.442Z,99815.72
2019-04-05T15:18:03.890Z,99821.16
2019-04-05T15:20:34.891Z,99823.68
2019-04-05T15:23:04.873Z,99821.28
2019-04-05T15:25:36.977Z,99827.22
2019-04-05T15:28:06.277Z,99828.83
2019-04-05T15:30:37.050Z,99826.66
2019-04-05T15:33:27.841Z,99823.28
2019-04-05T15:36:02.945Z,99824.36
2019-04-05T15:38:32.537Z,99822.08
2019-04-05T15:41:01.269Z,99821.30
2019-04-05T15:43:29.832Z,99822.16
2019-04-05T15:45:58.374Z,99828.83
2019-04-05T15:48:26.942Z,99828.76
2019-04-05T15:50:59.315Z,99837.00
2019-04-05T15:53:31.581Z,99838.16
2019-04-05T15:56:03.873Z,99833.28
2019-04-05T15:58:31.565Z,99832.20
2019-04-05T16:01:04.144Z,99837.09
2019-04-05T16:03:32.393Z,99839.63
2019-04-05T16:06:01.972Z,99836.03
2019-04-05T16:08:30.625Z,99831.67
2019-04-05T16:10:59.185Z,99832.66
2019-04-05T16:13:28.094Z,99830.86
2019-04-05T16:15:58.179Z,99837.02
2019-04-05T16:18:30.158Z,99838.83
2019-04-05T16:20:59.114Z,99838.27
2019-04-05T16:23:28.006Z,99852.02
2019-04-05T16:26:00.267Z,99844.78
2019-04-05T16:28:30.543Z,99853.12
2019-04-05T16:31:00.687Z,99838.74
2019-04-05T16:33:29.245Z,99846.41
2019-04-05T16:35:59.050Z,99841.58
2019-04-05T16:38:31.089Z,99844.69
2019-04-05T16:40:59.860Z,99848.66
2019-04-05T16:43:28.437Z,99841.41
2019-04-05T16:45:57.012Z,99842.72
2019-04-05T16:48:25.548Z,99837.64
2019-04-05T16:50:55.511Z,99846.75
2019-04-05T16:53:24.062Z,99836.47
2019-04-05T16:55:52.683Z,99836.47
2019-04-05T16:58:21.652Z,99841.46
2019-04-05T17:00:51.453Z,99844.55
2019-04-05T17:03:20.037Z,99842.46
2019-04-05T17:05:50.077Z,99842.38
2019-04-05T17:08:19.020Z,99842.82
2019-04-05T17:10:49.183Z,99841.58
2019-04-05T17:13:19.290Z,99838.53
2019-04-05T17:15:49.547Z,99838.53
2019-04-05T17:18:18.768Z,99847.58
2019-04-05T17:20:49.688Z,99843.66
2019-04-05T17:23:18.433Z,99846.28
2019-04-05T17:25:50.414Z,99846.35
2019-04-05T17:28:21.298Z,99845.52
2019-04-05T17:30:51.573Z,99846.95
2019-04-05T17:33:24.893Z,99847.58
2019-04-05T17:35:53.956Z,99841.75
2019-04-05T17:38:23.032Z,99846.03
2019-04-05T17:41:00.024Z,99849.57
2019-04-05T17:43:29.069Z,99849.57
2019-04-05T17:45:59.327Z,99838.55
2019-04-05T17:48:29.379Z,99855.86
2019-04-05T17:51:01.023Z,99853.77
2019-04-05T17:53:30.313Z,99861.27
2019-04-05T17:56:04.311Z,99868.45
2019-04-05T17:58:33.319Z,99865.94
2019-04-05T18:01:01.909Z,99861.73
2019-04-05T18:03:30.487Z,99866.45
2019-04-05T18:05:59.069Z,99872.03
2019-04-05T18:08:27.647Z,99865.95
2019-04-05T18:10:58.517Z,99877.67
2019-04-05T18:13:27.475Z,99872.88
2019-04-05T18:15:56.298Z,99878.30
2019-04-05T18:18:36.023Z,99886.69
2019-04-05T18:21:06.303Z,99900.53
2019-04-05T18:23:34.872Z,99885.74
2019-04-05T18:26:03.867Z,99888.67
2019-04-05T18:28:36.286Z,99893.69
2019-04-05T18:31:05.230Z,99897.60
2019-04-05T18:33:35.933Z,99902.17
2019-04-05T18:36:11.768Z,99904.66
2019-04-05T18:38:40.541Z,99909.05
2019-04-05T18:41:09.115Z,99910.30
2019-04-05T18:43:37.678Z,99905.77
2019-04-05T18:46:08.471Z,99900.27
2019-04-05T18:48:38.405Z,99909.86
2019-04-05T18:51:23.900Z,99906.93
2019-04-05T18:53:55.062Z,99907.45
2019-04-05T18:56:28.351Z,99905.22
2019-04-05T18:58:59.462Z,99900.23
2019-04-05T19:01:30.813Z,99905.95
2019-04-05T19:03:59.375Z,99909.72
2019-04-05T19:06:28.601Z,99910.23
2019-04-05T19:08:57.661Z,99911.52
2019-04-05T19:11:28.192Z,99910.52
2019-04-05T19:14:01.352Z,99915.06
2019-04-05T19:16:27.082Z,99910.52
2019-04-05T19:18:57.009Z,99903.94
2019-04-05T19:21:27.772Z,99900.75
2019-04-05T19:23:59.625Z,99904.12
2019-04-05T19:26:28.206Z,99905.91
2019-04-05T19:28:59.240Z,99902.55
2019-04-05T19:49:05.963Z,99911.07
2019-04-05T19:51:34.969Z,99909.20
2019-04-05T19:54:03.544Z,99901.63
2019-04-05T19:56:33.667Z,99903.02
2019-04-05T19:59:02.229Z,99898.41
2019-04-05T20:01:32.522Z,99901.23
2019-04-05T20:04:01.799Z,99903.53
2019-04-05T20:06:31.692Z,99896.84
2019-04-05T20:09:00.433Z,99900.24
2019-04-05T20:11:29.574Z,99897.20
2019-04-05T20:14:00.108Z,99897.97
2019-04-05T20:16:30.157Z,99894.45
2019-04-05T20:18:58.727Z,99895.05
2019-04-05T20:21:27.685Z,99900.39
2019-04-05T20:23:58.557Z,99892.88
2019-04-05T20:26:27.132Z,99893.87
2019-04-05T20:28:55.673Z,99890.20
2019-04-05T20:31:25.925Z,99901.07
2019-04-05T20:33:56.154Z,99900.44
2019-04-05T20:36:26.387Z,99900.81
2019-04-05T20:38:58.108Z,99908.20
2019-04-05T20:41:27.025Z,99905.02
2019-04-05T20:43:55.612Z,99905.90
2019-04-05T20:46:24.603Z,99904.32
2019-04-05T20:48:53.400Z,99911.34
2019-04-05T20:51:22.129Z,99914.38
2019-04-05T20:53:52.369Z,99915.63
2019-04-05T20:56:21.290Z,99910.69
2019-04-05T20:58:50.002Z,99918.41
2019-04-05T21:01:22.043Z,99919.11
2019-04-05T21:03:50.818Z,99917.87
2019-04-05T21:06:21.219Z,99919.19
2019-04-05T21:08:51.281Z,99916.63
2019-04-05T21:11:19.834Z,99916.99
2019-04-05T21:13:48.747Z,99914.77
2019-04-05T21:16:17.302Z,99919.26
2019-04-05T21:18:45.889Z,99918.05
2019-04-05T21:21:14.788Z,99920.83
2019-04-05T21:23:43.388Z,99919.11
2019-04-05T21:26:12.274Z,99919.51
2019-04-05T21:28:40.858Z,99913.61
2019-04-05T21:31:16.096Z,99913.47
2019-04-05T21:33:44.690Z,99915.96
2019-04-05T21:36:13.263Z,99930.13
2019-04-05T21:38:41.935Z,99934.27
2019-04-05T21:41:10.493Z,99929.37
2019-04-05T21:43:39.445Z,99934.19
2019-04-05T21:46:09.942Z,99930.92
2019-04-05T21:48:38.683Z,99920.42
2019-04-05T21:51:08.975Z,99928.92
2019-04-05T21:53:39.223Z,99929.66
2019-04-05T21:56:07.784Z,99932.77
2019-04-05T21:58:37.038Z,99934.99
2019-04-05T22:01:08.312Z,99931.55
2019-04-05T22:03:38.471Z,99934.08
2019-04-05T22:06:07.444Z,99931.23
2019-04-05T22:08:39.322Z,99930.13
2019-04-05T22:11:07.866Z,99929.80
2019-04-05T22:13:36.479Z,99931.11
2019-04-05T22:16:05.045Z,99931.88
2019-04-05T22:18:33.630Z,99938.33
2019-04-05T22:21:02.624Z,99945.72
2019-04-05T22:23:32.693Z,99945.86
2019-04-05T22:26:02.915Z,99944.07
2019-04-05T22:28:31.493Z,99941.22
2019-04-05T22:31:02.857Z,99943.09
2019-04-05T22:33:31.393Z,99947.87
2019-04-05T22:36:00.466Z,99945.66
2019-04-05T22:38:29.406Z,99937.28
2019-04-05T22:40:59.914Z,99936.80
2019-04-05T22:43:31.894Z,99937.42
2019-04-05T22:46:00.471Z,99936.88
2019-04-05T22:48:29.033Z,99928.45
2019-04-05T22:50:58.955Z,99930.69
2019-04-05T22:53:27.852Z,99917.77
2019-04-05T22:55:56.583Z,99920.55
2019-04-05T22:58:26.829Z,99921.35
2019-04-05T23:00:55.394Z,99919.56
2019-04-05T23:03:27.560Z,99920.04
2019-04-05T23:05:56.143Z,99917.98
2019-04-05T23:08:24.724Z,99907.52
2019-04-05T23:10:53.281Z,99909.68
2019-04-05T23:13:25.041Z,99918.46
2019-04-05T23:15:53.768Z,99918.46
2019-04-05T23:18:22.560Z,99916.00
2019-04-05T23:20:54.795Z,99916.00
2019-04-05T23:23:23.440Z,99921.17
2019-04-05T23:25:51.994Z,99921.09
2019-04-05T23:28:20.533Z,99920.11
2019-04-05T23:30:50.465Z,99923.88
2019-04-05T23:33:19.646Z,99923.88
2019-04-05T23:35:48.278Z,99930.45
2019-04-05T23:38:18.732Z,99931.95
2019-04-05T23:40:49.361Z,99932.87
2019-04-05T23:43:19.392Z,99933.21
2019-04-05T23:45:48.137Z,99936.35
2019-04-05T23:48:18.059Z,99929.69
2019-04-05T23:50:50.148Z,99931.55
2019-04-05T23:53:19.223Z,99933.61
2019-04-05T23:55:47.790Z,99940.20
2019-04-05T23:58:16.336Z,99939.61
